createdAt,value
2022-07-28T00:01:23.387Z,101236.78
2022-07-28T00:03:49.794Z,101237.28
2022-07-28T00:06:16.513Z,101238.63
2022-07-28T00:08:42.950Z,101234.97
2022-07-28T00:11:09.467Z,101241.78
2022-07-28T00:13:36.013Z,101241.41
2022-07-28T00:16:02.544Z,101238.22
2022-07-28T00:18:29.053Z,101242.50
2022-07-28T00:20:55.488Z,101240.16
2022-07-28T00:23:21.909Z,101248.09
2022-07-28T00:25:48.389Z,101233.88
2022-07-28T00:28:14.818Z,101237.88
2022-07-28T00:30:42.916Z,101241.66
2022-07-28T00:33:09.433Z,101240.75
2022-07-28T00:35:35.863Z,101236.66
2022-07-28T00:38:02.320Z,101237.59
2022-07-28T00:40:47.652Z,101244.41
2022-07-28T00:43:14.739Z,101241.53
2022-07-28T00:45:41.369Z,101242.09
2022-07-28T00:48:07.829Z,101232.69
2022-07-28T00:50:34.254Z,101233.25
2022-07-28T00:53:01.122Z,101231.09
2022-07-28T00:55:27.587Z,101233.41
2022-07-28T00:57:54.138Z,101231.91
2022-07-28T01:00:20.753Z,101226.38
2022-07-28T01:02:47.318Z,101228.88
2022-07-28T01:05:14.955Z,101225.72
2022-07-28T01:07:56.405Z,101231.94
2022-07-28T01:10:56.029Z,101228.22
2022-07-28T01:13:39.761Z,101225.22
2022-07-28T01:16:07.649Z,101229.34
2022-07-28T01:18:38.913Z,101220.53
2022-07-28T01:21:14.112Z,101229.56
2022-07-28T01:24:04.769Z,101230.13
2022-07-28T01:26:34.874Z,101233.88
2022-07-28T01:29:26.970Z,101219.94
2022-07-28T01:32:01.064Z,101222.13
2022-07-28T01:34:39.360Z,101220.63
2022-07-28T01:37:11.757Z,101223.84
2022-07-28T01:39:41.155Z,101214.47
2022-07-28T01:42:09.523Z,101220.31
2022-07-28T01:44:39.085Z,101210.25
2022-07-28T01:47:07.560Z,101218.28
2022-07-28T01:49:35.655Z,101210.94
2022-07-28T01:52:03.555Z,101209.91
2022-07-28T01:54:31.074Z,101209.00
2022-07-28T01:56:59.269Z,101211.28
2022-07-28T01:59:26.419Z,101213.09
2022-07-28T02:01:53.481Z,101214.78
2022-07-28T02:04:21.515Z,101204.06
2022-07-28T02:06:48.652Z,101207.00
2022-07-28T02:09:15.987Z,101201.56
2022-07-28T02:11:44.362Z,101200.19
2022-07-28T02:14:14.068Z,101198.63
2022-07-28T02:16:54.822Z,101194.69
2022-07-28T02:19:21.472Z,101196.53
2022-07-28T02:21:49.426Z,101199.34
2022-07-28T02:24:19.533Z,101205.09
2022-07-28T02:27:06.522Z,101203.47
2022-07-28T02:29:50.631Z,101204.72
2022-07-28T02:32:27.989Z,101204.41
2022-07-28T02:35:05.714Z,101199.06
2022-07-28T02:37:39.227Z,101196.81
2022-07-28T02:40:09.925Z,101202.22
2022-07-28T02:42:36.759Z,101193.34
2022-07-28T02:45:05.272Z,101192.75
2022-07-28T02:47:37.686Z,101193.44
2022-07-28T02:50:04.840Z,101200.81
2022-07-28T02:52:32.950Z,101192.19
2022-07-28T02:55:00.758Z,101196.34
2022-07-28T02:57:27.635Z,101201.69
2022-07-28T02:59:54.592Z,101200.44
2022-07-28T03:02:21.642Z,101202.34
2022-07-28T03:05:02.075Z,101198.94
2022-07-28T03:07:30.186Z,101197.16
2022-07-28T03:09:57.192Z,101193.25
2022-07-28T03:12:23.701Z,101192.06
2022-07-28T03:14:50.174Z,101195.56
2022-07-28T03:17:16.862Z,101190.63
2022-07-28T03:19:43.514Z,101185.66
2022-07-28T03:22:11.645Z,101184.28
2022-07-28T03:24:40.414Z,101182.84
2022-07-28T03:27:28.296Z,101187.28
2022-07-28T03:30:04.524Z,101188.25
2022-07-28T03:32:33.273Z,101187.88
2022-07-28T03:35:00.580Z,101188.53
2022-07-28T03:37:38.318Z,101197.47
2022-07-28T03:40:05.378Z,101194.03
2022-07-28T03:42:33.240Z,101197.13
2022-07-28T03:45:00.423Z,101205.03
2022-07-28T03:47:26.896Z,101205.84
2022-07-28T03:49:53.325Z,101204.50
2022-07-28T03:52:19.789Z,101210.50
2022-07-28T03:54:46.200Z,101212.53
2022-07-28T03:57:13.716Z,101210.63
2022-07-28T03:59:40.292Z,101212.00
2022-07-28T04:02:06.868Z,101210.63
2022-07-28T04:04:33.382Z,101206.28
2022-07-28T04:06:59.824Z,101202.19
2022-07-28T04:09:26.239Z,101203.25
2022-07-28T04:11:52.798Z,101209.75
2022-07-28T04:14:19.637Z,101214.00
2022-07-28T04:16:46.351Z,101210.50
2022-07-28T04:19:12.840Z,101213.66
2022-07-28T04:21:39.309Z,101213.09
2022-07-28T04:24:06.918Z,101205.25
2022-07-28T04:26:33.616Z,101208.06
2022-07-28T04:29:00.049Z,101205.97
2022-07-28T04:31:29.969Z,101195.41
2022-07-28T04:33:56.459Z,101195.47
2022-07-28T04:36:22.867Z,101199.63
2022-07-28T04:38:49.257Z,101190.19
2022-07-28T04:41:15.676Z,101191.97
2022-07-28T04:43:42.562Z,101198.53
2022-07-28T04:46:13.212Z,101196.53
2022-07-28T04:48:41.412Z,101199.28
2022-07-28T04:51:07.903Z,101196.97
2022-07-28T04:53:34.357Z,101200.41
2022-07-28T04:56:00.810Z,101204.41
2022-07-28T04:58:30.967Z,101200.41
2022-07-28T05:00:57.607Z,101200.47
2022-07-28T05:03:24.163Z,101200.34
2022-07-28T05:05:54.433Z,101200.34
2022-07-28T05:08:22.075Z,101196.84
2022-07-28T05:10:52.282Z,101191.41
2022-07-28T05:13:18.696Z,101193.66
2022-07-28T05:15:45.089Z,101195.72
2022-07-28T05:18:11.528Z,101192.56
2022-07-28T05:20:37.921Z,101200.41
2022-07-28T05:23:04.490Z,101192.97
2022-07-28T05:25:30.943Z,101188.19
2022-07-28T05:27:57.493Z,101191.16
2022-07-28T05:30:23.977Z,101188.56
2022-07-28T05:32:51.018Z,101190.38
2022-07-28T05:35:17.491Z,101186.38
2022-07-28T05:37:44.032Z,101190.88
2022-07-28T05:40:13.717Z,101187.59
2022-07-28T05:42:41.905Z,101191.81
2022-07-28T05:45:16.453Z,101183.09
2022-07-28T05:47:47.556Z,101184.22
2022-07-28T05:50:15.994Z,101180.19
2022-07-28T05:52:42.451Z,101180.16
2022-07-28T05:55:10.001Z,101178.34
2022-07-28T05:57:37.241Z,101182.19
2022-07-28T06:00:06.955Z,101190.38
2022-07-28T06:02:33.606Z,101193.72
2022-07-28T06:05:00.104Z,101188.63
2022-07-28T06:07:43.767Z,101182.69
2022-07-28T06:10:11.625Z,101188.81
2022-07-28T06:12:45.934Z,101177.19
2022-07-28T06:15:18.065Z,101180.78
2022-07-28T06:17:44.517Z,101182.34
2022-07-28T06:20:11.878Z,101183.31
2022-07-28T06:22:46.292Z,101178.66
2022-07-28T06:25:15.161Z,101176.41
2022-07-28T06:27:41.829Z,101172.50
2022-07-28T06:30:09.040Z,101174.41
2022-07-28T06:32:35.592Z,101179.13
2022-07-28T06:35:02.016Z,101170.19
2022-07-28T06:37:28.404Z,101174.59
2022-07-28T06:39:54.810Z,101169.94
2022-07-28T06:42:21.224Z,101169.59
2022-07-28T06:44:58.250Z,101173.31
2022-07-28T06:47:25.584Z,101173.59
2022-07-28T06:49:52.011Z,101170.59
2022-07-28T06:52:20.656Z,101172.50
2022-07-28T06:54:48.821Z,101168.63
2022-07-28T06:57:15.483Z,101168.16
2022-07-28T06:59:43.433Z,101173.66
2022-07-28T07:02:09.861Z,101167.19
2022-07-28T07:04:36.786Z,101175.81
2022-07-28T07:07:03.780Z,101164.06
2022-07-28T07:09:41.312Z,101163.63
2022-07-28T07:12:07.763Z,101160.88
2022-07-28T07:14:34.233Z,101161.69
2022-07-28T07:17:00.637Z,101157.97
2022-07-28T07:19:27.087Z,101162.16
2022-07-28T07:21:53.569Z,101157.34
2022-07-28T07:24:19.993Z,101160.97
2022-07-28T07:26:48.848Z,101154.41
2022-07-28T07:29:15.281Z,101157.19
2022-07-28T07:31:41.855Z,101159.41
2022-07-28T07:34:08.409Z,101157.97
2022-07-28T07:36:34.820Z,101151.63
2022-07-28T07:39:01.254Z,101160.19
2022-07-28T07:41:27.654Z,101151.75
2022-07-28T07:43:54.063Z,101151.19
2022-07-28T07:46:20.523Z,101151.44
2022-07-28T07:48:47.020Z,101144.66
2022-07-28T07:51:15.736Z,101148.16
2022-07-28T07:53:42.303Z,101136.63
2022-07-28T07:56:08.729Z,101136.19
2022-07-28T07:58:35.138Z,101128.78
2022-07-28T08:01:01.576Z,101132.44
2022-07-28T08:03:27.969Z,101124.88
2022-07-28T08:05:56.592Z,101116.84
2022-07-28T08:08:24.099Z,101128.28
2022-07-28T08:10:51.022Z,101116.78
2022-07-28T08:13:20.329Z,101116.13
2022-07-28T08:15:47.164Z,101113.94
2022-07-28T08:18:13.699Z,101115.94
2022-07-28T08:20:40.113Z,101117.28
2022-07-28T08:23:08.344Z,101114.41
2022-07-28T08:25:36.650Z,101122.50
2022-07-28T08:28:03.416Z,101118.13
2022-07-28T08:30:32.762Z,101111.09
2022-07-28T08:33:00.036Z,101106.06
2022-07-28T08:35:35.332Z,101111.75
2022-07-28T08:38:03.950Z,101105.75
2022-07-28T08:40:32.278Z,101106.31
2022-07-28T08:43:25.208Z,101106.44
2022-07-28T08:45:58.075Z,101101.72
2022-07-28T08:48:24.953Z,101095.09
2022-07-28T08:50:52.370Z,101097.97
2022-07-28T08:53:20.546Z,101095.75
2022-07-28T08:55:49.041Z,101097.06
2022-07-28T08:58:16.664Z,101097.25
2022-07-28T09:00:43.122Z,101086.69
2022-07-28T09:03:11.465Z,101084.56
2022-07-28T09:05:41.093Z,101088.69
2022-07-28T09:08:07.582Z,101083.66
2022-07-28T09:10:34.024Z,101087.22
2022-07-28T09:13:00.419Z,101081.28
2022-07-28T09:15:27.050Z,101082.28
2022-07-28T09:17:53.521Z,101076.69
2022-07-28T09:20:20.163Z,101079.78
2022-07-28T09:23:02.770Z,101085.78
2022-07-28T09:25:30.275Z,101069.59
2022-07-28T09:28:05.497Z,101075.41
2022-07-28T09:30:33.964Z,101073.69
2022-07-28T09:33:42.372Z,101075.28
2022-07-28T09:36:04.042Z,101070.66
2022-07-28T09:38:40.041Z,101060.25
2022-07-28T09:41:07.361Z,101064.13
2022-07-28T09:43:44.485Z,101065.09
2022-07-28T09:46:22.110Z,101068.28
2022-07-28T09:48:48.847Z,101058.69
2022-07-28T09:51:36.613Z,101057.34
2022-07-28T09:54:14.321Z,101053.88
2022-07-28T09:56:46.023Z,101048.88
2022-07-28T09:59:14.883Z,101052.06
2022-07-28T10:01:59.732Z,101046.16
2022-07-28T10:04:41.851Z,101038.72
2022-07-28T10:07:10.385Z,101041.25
2022-07-28T10:09:40.653Z,101040.50
2022-07-28T10:12:20.322Z,101031.97
2022-07-28T10:14:48.108Z,101027.97
2022-07-28T10:17:26.891Z,101019.69
2022-07-28T10:19:55.013Z,101020.63
2022-07-28T10:22:23.469Z,101027.81
2022-07-28T10:24:52.738Z,101017.66
2022-07-28T10:27:24.821Z,101013.81
2022-07-28T10:29:56.877Z,101016.19
2022-07-28T10:32:23.225Z,101004.91
2022-07-28T10:34:56.203Z,101001.31
2022-07-28T10:37:27.738Z,101006.84
2022-07-28T10:40:09.977Z,101022.41
2022-07-28T10:42:37.166Z,101005.28
2022-07-28T10:45:04.688Z,101008.97
2022-07-28T10:47:35.865Z,101013.00
2022-07-28T10:50:03.432Z,101013.78
2022-07-28T10:52:46.636Z,101009.63
2022-07-28T10:55:31.646Z,100995.41
2022-07-28T10:58:24.770Z,100997.19
2022-07-28T11:00:56.781Z,100992.25
2022-07-28T11:03:43.081Z,100986.31
2022-07-28T11:06:36.632Z,100991.75
2022-07-28T11:09:15.340Z,100995.19
2022-07-28T11:11:53.193Z,100990.63
2022-07-28T11:14:22.749Z,100993.56
2022-07-28T11:17:11.463Z,100987.09
2022-07-28T11:19:46.736Z,100989.53
2022-07-28T11:22:28.299Z,100982.56
2022-07-28T11:24:57.986Z,100989.06
2022-07-28T11:27:40.087Z,100984.88
2022-07-28T11:30:06.925Z,100980.75
2022-07-28T11:33:03.345Z,100971.63
2022-07-28T11:35:31.353Z,100972.63
2022-07-28T11:38:00.687Z,100967.47
2022-07-28T11:40:30.834Z,100960.19
2022-07-28T11:43:36.630Z,100965.75
2022-07-28T11:46:04.868Z,100964.22
2022-07-28T11:48:38.340Z,100958.50
2022-07-28T11:51:04.809Z,100953.81
2022-07-28T11:53:53.254Z,100947.69
2022-07-28T11:56:23.984Z,100939.41
2022-07-28T11:59:05.085Z,100939.03
2022-07-28T12:01:33.135Z,100935.13
2022-07-28T12:04:17.401Z,100924.81
2022-07-28T12:06:44.434Z,100936.63
2022-07-28T12:09:23.309Z,100934.66
2022-07-28T12:11:54.106Z,100934.91
2022-07-28T12:14:22.497Z,100922.50
2022-07-28T12:16:52.566Z,100918.00
2022-07-28T12:19:20.711Z,100925.53
2022-07-28T12:21:56.573Z,100916.34
2022-07-28T12:24:31.388Z,100921.84
2022-07-28T12:27:00.232Z,100919.56
2022-07-28T12:29:36.066Z,100915.31
2022-07-28T12:32:09.600Z,100902.16
2022-07-28T12:34:37.901Z,100895.09
2022-07-28T12:37:06.036Z,100905.34
2022-07-28T12:39:34.344Z,100902.94
2022-07-28T12:42:11.585Z,100902.59
2022-07-28T12:44:43.503Z,100898.56
2022-07-28T12:47:12.040Z,100894.13
2022-07-28T12:49:40.841Z,100888.13
2022-07-28T12:52:22.066Z,100883.59
2022-07-28T12:54:55.834Z,100884.44
2022-07-28T12:57:50.617Z,100890.81
2022-07-28T13:00:29.359Z,100873.81
2022-07-28T13:02:57.816Z,100880.09
2022-07-28T13:05:58.046Z,100883.69
2022-07-28T13:08:27.433Z,100872.97
2022-07-28T13:10:57.481Z,100873.78
2022-07-28T13:13:25.508Z,100876.38
2022-07-28T13:16:15.504Z,100880.78
2022-07-28T13:18:43.141Z,100882.66
2022-07-28T13:21:10.854Z,100885.13
2022-07-28T13:23:37.666Z,100883.53
2022-07-28T13:26:05.634Z,100873.91
2022-07-28T13:28:32.217Z,100871.28
2022-07-28T13:30:58.664Z,100876.59
2022-07-28T13:33:26.755Z,100876.56
2022-07-28T13:35:54.729Z,100865.00
2022-07-28T13:38:21.222Z,100860.25
2022-07-28T13:40:47.694Z,100864.28
2022-07-28T13:43:14.154Z,100868.25
2022-07-28T13:45:40.681Z,100854.22
2022-07-28T13:48:08.341Z,100851.72
2022-07-28T13:50:34.845Z,100845.44
2022-07-28T13:53:01.491Z,100847.25
2022-07-28T13:55:28.146Z,100850.56
2022-07-28T13:57:54.950Z,100848.06
2022-07-28T14:00:23.196Z,100829.34
2022-07-28T14:02:50.816Z,100833.03
2022-07-28T14:05:17.410Z,100840.69
2022-07-28T14:07:48.134Z,100838.88
2022-07-28T14:10:15.545Z,100832.84
2022-07-28T14:12:41.994Z,100840.72
2022-07-28T14:15:11.591Z,100835.41
2022-07-28T14:17:43.697Z,100831.84
2022-07-28T14:20:12.839Z,100837.50
2022-07-28T14:22:39.240Z,100834.88
2022-07-28T14:25:06.073Z,100832.63
2022-07-28T14:27:32.622Z,100832.84
2022-07-28T14:29:59.065Z,100833.72
2022-07-28T14:32:30.169Z,100822.69
2022-07-28T14:34:56.574Z,100828.06
2022-07-28T14:37:23.149Z,100825.59
2022-07-28T14:39:49.548Z,100829.78
2022-07-28T14:42:16.079Z,100823.84
2022-07-28T14:44:42.489Z,100824.84
2022-07-28T14:47:09.038Z,100819.41
2022-07-28T14:49:35.743Z,100817.47
2022-07-28T14:52:02.773Z,100816.78
2022-07-28T14:54:29.532Z,100819.75
2022-07-28T14:56:56.271Z,100808.81
2022-07-28T14:59:22.776Z,100806.84
2022-07-28T15:01:49.963Z,100809.72
2022-07-28T15:04:17.920Z,100811.56
2022-07-28T15:06:44.936Z,100810.69
2022-07-28T15:09:11.463Z,100808.94
2022-07-28T15:11:39.594Z,100808.22
2022-07-28T15:14:06.011Z,100807.16
2022-07-28T15:16:33.003Z,100803.78
2022-07-28T15:18:59.444Z,100802.69
2022-07-28T15:21:25.854Z,100811.97
2022-07-28T15:23:52.310Z,100811.19
2022-07-28T15:26:18.746Z,100807.63
2022-07-28T15:28:48.252Z,100811.34
2022-07-28T15:31:15.490Z,100800.88
2022-07-28T15:33:48.188Z,100807.34
2022-07-28T15:36:20.423Z,100811.00
2022-07-28T15:38:48.970Z,100807.31
2022-07-28T15:41:18.268Z,100811.19
2022-07-28T15:43:44.948Z,100808.69
2022-07-28T15:46:12.934Z,100802.41
2022-07-28T15:48:41.311Z,100810.38
2022-07-28T15:51:08.436Z,100806.94
2022-07-28T15:53:35.762Z,100793.19
2022-07-28T15:56:04.009Z,100795.06
2022-07-28T15:58:30.466Z,100791.59
2022-07-28T16:00:56.881Z,100794.75
2022-07-28T16:03:27.996Z,100794.28
2022-07-28T16:05:54.492Z,100804.69
2022-07-28T16:08:22.512Z,100793.44
2022-07-28T16:10:49.908Z,100803.06
2022-07-28T16:13:22.708Z,100794.19
2022-07-28T16:16:02.837Z,100800.66
2022-07-28T16:18:29.253Z,100804.66
2022-07-28T16:20:55.691Z,100797.78
2022-07-28T16:23:22.167Z,100796.25
2022-07-28T16:25:48.572Z,100792.56
2022-07-28T16:28:14.962Z,100800.19
2022-07-28T16:30:41.441Z,100794.41
2022-07-28T16:33:08.177Z,100798.41
2022-07-28T16:35:34.604Z,100792.09
2022-07-28T16:38:05.056Z,100794.91
2022-07-28T16:40:32.454Z,100792.09
2022-07-28T16:43:04.227Z,100793.22
2022-07-28T16:45:31.047Z,100788.00
2022-07-28T16:47:58.741Z,100794.31
2022-07-28T16:50:25.389Z,100786.44
2022-07-28T16:52:52.389Z,100788.16
2022-07-28T16:55:23.396Z,100789.59
2022-07-28T16:57:51.222Z,100786.59
2022-07-28T17:00:18.377Z,100782.19
2022-07-28T17:02:45.270Z,100782.53
2022-07-28T17:05:12.500Z,100783.28
2022-07-28T17:07:45.247Z,100786.16
2022-07-28T17:10:13.659Z,100784.22
2022-07-28T17:12:40.132Z,100782.53
2022-07-28T17:15:07.044Z,100791.06
2022-07-28T17:17:47.040Z,100786.91
2022-07-28T17:20:13.597Z,100788.72
2022-07-28T17:22:40.220Z,100783.44
2022-07-28T17:25:22.668Z,100781.28
2022-07-28T17:27:53.662Z,100781.81
2022-07-28T17:30:21.232Z,100772.09
2022-07-28T17:32:47.697Z,100778.78
2022-07-28T17:35:31.512Z,100779.97
2022-07-28T17:38:00.774Z,100781.06
2022-07-28T17:40:27.219Z,100776.66
2022-07-28T17:42:54.082Z,100781.72
2022-07-28T17:45:20.536Z,100793.78
2022-07-28T17:47:47.007Z,100781.81
2022-07-28T17:50:13.546Z,100786.19
2022-07-28T17:52:40.943Z,100789.41
2022-07-28T17:55:26.447Z,100785.56
2022-07-28T17:57:55.983Z,100785.66
2022-07-28T18:00:22.660Z,100794.31
2022-07-28T18:02:49.905Z,100791.09
2022-07-28T18:05:17.484Z,100792.50
2022-07-28T18:07:50.428Z,100796.25
2022-07-28T18:10:20.288Z,100790.09
2022-07-28T18:12:51.473Z,100789.72
2022-07-28T18:15:18.821Z,100791.34
2022-07-28T18:17:54.817Z,100793.81
2022-07-28T18:20:22.144Z,100795.59
2022-07-28T18:22:48.547Z,100796.56
2022-07-28T18:25:14.940Z,100794.19
2022-07-28T18:27:42.506Z,100797.41
2022-07-28T18:30:09.793Z,100795.41
2022-07-28T18:32:36.254Z,100800.50
2022-07-28T18:35:02.661Z,100796.38
2022-07-28T18:37:30.977Z,100794.94
2022-07-28T18:39:57.530Z,100795.91
2022-07-28T18:42:23.982Z,100794.94
2022-07-28T18:44:50.423Z,100794.69
2022-07-28T18:47:16.826Z,100801.75
2022-07-28T18:49:43.421Z,100804.88
2022-07-28T18:52:09.896Z,100803.06
2022-07-28T18:54:36.324Z,100806.44
2022-07-28T18:57:02.732Z,100805.38
2022-07-28T18:59:29.125Z,100812.28
2022-07-28T19:01:55.688Z,100804.19
2022-07-28T19:04:22.159Z,100804.19
2022-07-28T19:06:49.179Z,100803.38
2022-07-28T19:09:15.580Z,100810.16
2022-07-28T19:11:46.007Z,100809.44
2022-07-28T19:14:16.635Z,100807.44
2022-07-28T19:16:43.739Z,100809.66
2022-07-28T19:19:10.171Z,100803.44
2022-07-28T19:21:36.599Z,100807.03
2022-07-28T19:24:03.675Z,100813.41
2022-07-28T19:26:30.091Z,100814.94
2022-07-28T19:28:56.505Z,100817.88
2022-07-28T19:31:23.052Z,100821.41
2022-07-28T19:33:49.566Z,100824.00
2022-07-28T19:36:15.999Z,100828.09
2022-07-28T19:38:42.712Z,100831.53
2022-07-28T19:41:09.319Z,100838.09
2022-07-28T19:43:35.912Z,100840.59
2022-07-28T19:46:02.820Z,100837.94
2022-07-28T19:48:29.325Z,100843.59
2022-07-28T19:50:56.715Z,100840.28
2022-07-28T19:53:25.337Z,100845.25
2022-07-28T19:55:58.726Z,100853.53
2022-07-28T19:58:25.170Z,100847.09
2022-07-28T20:00:51.778Z,100850.72
2022-07-28T20:04:01.576Z,100854.53
2022-07-28T20:06:05.273Z,100856.63
2022-07-28T20:08:31.706Z,100859.00
2022-07-28T20:10:58.369Z,100861.38
2022-07-28T20:13:24.804Z,100859.00
2022-07-28T20:15:51.266Z,100859.81
2022-07-28T20:18:19.255Z,100869.19
2022-07-28T20:20:46.681Z,100864.69
2022-07-28T20:23:14.702Z,100861.66
2022-07-28T20:25:41.848Z,100869.28
2022-07-28T20:28:08.825Z,100874.00
2022-07-28T20:30:35.307Z,100866.13
2022-07-28T20:33:02.512Z,100870.06
2022-07-28T20:35:29.048Z,100870.63
2022-07-28T20:37:55.786Z,100863.66
2022-07-28T20:40:22.226Z,100870.97
2022-07-28T20:42:52.803Z,100876.66
2022-07-28T20:45:19.763Z,100869.78
2022-07-28T20:47:46.189Z,100874.31
2022-07-28T20:50:14.509Z,100877.69
2022-07-28T20:52:41.071Z,100875.13
2022-07-28T20:55:08.786Z,100869.97
2022-07-28T20:57:35.260Z,100878.84
2022-07-28T21:00:03.139Z,100880.41
2022-07-28T21:02:29.637Z,100883.31
2022-07-28T21:04:56.120Z,100879.88
2022-07-28T21:07:59.849Z,100889.50
2022-07-28T21:10:10.059Z,100885.19
2022-07-28T21:12:37.225Z,100891.16
2022-07-28T21:15:05.073Z,100881.22
2022-07-28T21:17:31.484Z,100885.25
2022-07-28T21:19:57.891Z,100878.34
2022-07-28T21:22:24.585Z,100880.97
2022-07-28T21:24:55.321Z,100883.06
2022-07-28T21:27:22.699Z,100876.34
2022-07-28T21:29:49.552Z,100875.47
2022-07-28T21:32:16.030Z,100875.56
2022-07-28T21:34:42.460Z,100872.09
2022-07-28T21:37:11.399Z,100868.63
2022-07-28T21:39:38.974Z,100867.94
2022-07-28T21:42:08.536Z,100876.25
2022-07-28T21:44:35.768Z,100871.00
2022-07-28T21:47:02.188Z,100876.97
2022-07-28T21:49:30.459Z,100881.41
2022-07-28T21:51:56.898Z,100876.94
2022-07-28T21:54:23.593Z,100890.94
2022-07-28T21:56:50.107Z,100898.13
2022-07-28T21:59:16.531Z,100892.75
2022-07-28T22:01:43.070Z,100883.03
2022-07-28T22:04:09.545Z,100873.19
2022-07-28T22:06:35.987Z,100867.09
2022-07-28T22:09:02.499Z,100866.59
2022-07-28T22:11:29.181Z,100869.41
2022-07-28T22:13:55.720Z,100870.44
2022-07-28T22:16:22.193Z,100876.03
2022-07-28T22:18:48.647Z,100873.13
2022-07-28T22:21:15.060Z,100872.06
2022-07-28T22:23:41.820Z,100870.81
2022-07-28T22:26:08.227Z,100875.81
2022-07-28T22:28:34.641Z,100875.66
2022-07-28T22:31:09.332Z,100879.16
2022-07-28T22:33:39.757Z,100889.31
2022-07-28T22:36:07.715Z,100892.34
2022-07-28T22:38:34.131Z,100890.81
2022-07-28T22:41:00.555Z,100893.78
2022-07-28T22:43:26.961Z,100896.84
2022-07-28T22:45:53.487Z,100893.69
2022-07-28T22:48:19.949Z,100900.47
2022-07-28T22:50:46.353Z,100897.38
2022-07-28T22:53:12.762Z,100899.59
2022-07-28T22:55:39.892Z,100888.25
2022-07-28T22:58:06.542Z,100892.78
2022-07-28T23:00:36.176Z,100893.69
2022-07-28T23:03:03.526Z,100890.28
2022-07-28T23:05:30.445Z,100892.56
2022-07-28T23:07:57.334Z,100892.91
2022-07-28T23:10:24.157Z,100888.34
2022-07-28T23:12:50.561Z,100889.41
2022-07-28T23:15:17.140Z,100886.69
2022-07-28T23:17:43.616Z,100884.75
2022-07-28T23:20:10.551Z,100887.06
2022-07-28T23:22:37.885Z,100887.97
2022-07-28T23:25:04.785Z,100888.47
2022-07-28T23:27:31.197Z,100885.97
2022-07-28T23:29:57.610Z,100890.28
2022-07-28T23:32:24.019Z,100886.16
2022-07-28T23:34:50.439Z,100878.59
2022-07-28T23:37:16.884Z,100881.06
2022-07-28T23:39:43.382Z,100878.59
2022-07-28T23:42:09.823Z,100875.94
2022-07-28T23:44:37.815Z,100874.91
2022-07-28T23:47:04.399Z,100868.50
2022-07-28T23:49:30.881Z,100863.97
2022-07-28T23:51:57.280Z,100861.06
2022-07-28T23:54:23.705Z,100870.34
2022-07-28T23:56:56.460Z,100865.03
2022-07-28T23:59:23.823Z,100863.88
